createdAt,value
2018-10-12T00:01:19.392Z,22.00
2018-10-12T00:04:23.762Z,48.20
2018-10-12T00:07:28.082Z,43.23
2018-10-12T00:10:32.367Z,24.70
2018-10-12T00:13:36.648Z,23.07
2018-10-12T00:16:40.954Z,24.80
2018-10-12T00:19:45.201Z,29.50
2018-10-12T00:26:02.201Z,26.03
2018-10-12T00:29:06.615Z,26.40
2018-10-12T00:32:10.875Z,29.90
2018-10-12T00:35:15.207Z,23.13
2018-10-12T00:38:19.515Z,27.40
2018-10-12T00:41:23.804Z,22.50
2018-10-12T00:44:28.108Z,31.37
2018-10-12T00:47:32.371Z,23.27
2018-10-12T00:50:36.666Z,22.63
2018-10-12T00:53:40.970Z,25.63
2018-10-12T00:56:45.248Z,27.50
2018-10-12T00:59:49.530Z,24.13
2018-10-12T01:02:53.804Z,24.07
2018-10-12T01:05:58.072Z,23.00
2018-10-12T01:09:02.336Z,24.33
2018-10-12T01:12:31.520Z,26.17
2018-10-12T01:15:35.776Z,24.23
2018-10-12T01:18:40.032Z,34.83
2018-10-12T01:21:44.295Z,35.27
2018-10-12T01:24:48.574Z,30.30
2018-10-12T01:27:52.842Z,25.20
2018-10-12T01:30:57.156Z,28.43
2018-10-12T01:34:01.498Z,24.30
2018-10-12T01:37:05.768Z,25.77
2018-10-12T01:40:10.034Z,27.97
2018-10-12T01:43:14.345Z,23.80
2018-10-12T01:46:18.660Z,24.73
2018-10-12T01:49:22.892Z,23.90
2018-10-12T01:52:27.187Z,24.23
2018-10-12T01:55:31.467Z,23.87
2018-10-12T01:58:36.238Z,41.40
2018-10-12T02:01:40.510Z,40.27
2018-10-12T02:04:44.792Z,33.20
2018-10-12T02:07:49.053Z,34.37
2018-10-12T02:10:53.340Z,28.77
2018-10-12T02:13:57.627Z,23.53
2018-10-12T02:17:01.924Z,23.50
2018-10-12T02:20:06.281Z,24.33
2018-10-12T02:23:10.552Z,22.87
2018-10-12T02:26:14.798Z,23.87
2018-10-12T02:29:19.110Z,23.13
2018-10-12T02:32:23.371Z,27.00
2018-10-12T02:35:27.670Z,26.60
2018-10-12T02:38:31.976Z,28.53
2018-10-12T02:41:36.254Z,58.10
2018-10-12T02:44:40.501Z,48.23
2018-10-12T02:47:44.816Z,36.07
2018-10-12T02:50:49.105Z,34.77
2018-10-12T02:53:53.381Z,33.70
2018-10-12T02:56:57.681Z,32.57
2018-10-12T03:00:02.038Z,28.97
2018-10-12T03:03:06.334Z,23.87
2018-10-12T03:06:10.672Z,26.27
2018-10-12T03:09:14.976Z,25.97
2018-10-12T03:12:19.270Z,23.30
2018-10-12T03:15:23.529Z,26.63
2018-10-12T03:18:27.829Z,26.97
2018-10-12T03:21:32.438Z,24.83
2018-10-12T03:24:36.740Z,25.37
2018-10-12T03:27:58.472Z,29.83
2018-10-12T03:31:03.368Z,23.53
2018-10-12T03:34:07.641Z,28.70
2018-10-12T03:37:11.986Z,29.70
2018-10-12T03:40:16.501Z,24.87
2018-10-12T03:43:20.737Z,28.07
2018-10-12T03:46:25.027Z,25.73
2018-10-12T03:49:29.315Z,33.90
2018-10-12T03:52:33.639Z,24.33
2018-10-12T03:55:37.909Z,24.10
2018-10-12T03:58:42.215Z,23.13
2018-10-12T04:01:46.474Z,48.00
2018-10-12T04:04:50.768Z,60.23
2018-10-12T04:07:55.039Z,32.50
2018-10-12T04:10:59.341Z,25.53
2018-10-12T04:14:03.606Z,23.63
2018-10-12T04:17:07.888Z,28.97
2018-10-12T04:20:12.292Z,39.47
2018-10-12T04:23:16.614Z,38.60
2018-10-12T04:26:20.889Z,35.60
2018-10-12T04:29:25.190Z,35.00
2018-10-12T04:32:29.429Z,37.03
2018-10-12T04:35:33.745Z,27.60
2018-10-12T04:38:56.677Z,24.33
2018-10-12T04:42:00.997Z,27.73
2018-10-12T04:45:05.280Z,26.57
2018-10-12T04:48:09.604Z,23.90
2018-10-12T04:51:17.878Z,25.20
2018-10-12T04:54:22.468Z,92.03
2018-10-12T04:57:26.797Z,31.03
2018-10-12T05:00:31.136Z,27.37
2018-10-12T05:03:35.663Z,24.03
2018-10-12T05:06:39.997Z,24.73
2018-10-12T05:09:44.245Z,26.47
2018-10-12T05:12:48.569Z,35.67
2018-10-12T05:15:52.848Z,34.53
2018-10-12T05:18:57.123Z,36.37
2018-10-12T05:22:01.384Z,58.30
2018-10-12T05:25:05.656Z,33.40
2018-10-12T05:28:09.920Z,47.40
2018-10-12T05:31:14.248Z,46.77
2018-10-12T05:34:18.533Z,45.53
2018-10-12T05:37:22.852Z,33.33
2018-10-12T05:40:27.125Z,27.90
2018-10-12T05:43:31.648Z,31.33
2018-10-12T05:46:35.771Z,33.40
2018-10-12T05:49:57.206Z,26.80
2018-10-12T05:53:01.542Z,27.77
2018-10-12T05:56:06.708Z,27.57
2018-10-12T05:59:11.490Z,26.03
2018-10-12T06:02:15.717Z,26.83
2018-10-12T06:05:20.017Z,35.70
2018-10-12T06:08:24.276Z,37.07
2018-10-12T06:11:28.598Z,28.73
2018-10-12T06:14:32.880Z,34.20
2018-10-12T06:17:37.151Z,36.13
2018-10-12T06:20:41.400Z,31.93
2018-10-12T06:23:45.696Z,30.33
2018-10-12T06:26:49.969Z,29.10
2018-10-12T06:29:54.237Z,35.20
2018-10-12T06:32:58.659Z,26.97
2018-10-12T06:36:02.945Z,27.07
2018-10-12T06:39:07.298Z,25.37
2018-10-12T06:42:11.578Z,27.00
2018-10-12T06:45:15.866Z,31.30
2018-10-12T06:48:20.153Z,26.43
2018-10-12T06:51:24.540Z,68.27
2018-10-12T06:54:28.872Z,37.17
2018-10-12T06:57:33.130Z,36.77
2018-10-12T07:00:37.476Z,30.50
2018-10-12T07:03:41.919Z,28.90
2018-10-12T07:06:46.217Z,33.03
2018-10-12T07:09:50.489Z,30.43
2018-10-12T07:12:54.789Z,34.90
2018-10-12T07:15:59.041Z,50.53
2018-10-12T07:19:03.312Z,33.53
2018-10-12T07:22:07.601Z,32.60
2018-10-12T07:25:11.869Z,29.80
2018-10-12T07:28:16.186Z,35.07
2018-10-12T07:31:20.489Z,33.57
2018-10-12T07:34:24.746Z,30.43
2018-10-12T07:37:29.056Z,40.87
2018-10-12T07:40:33.309Z,29.37
2018-10-12T07:43:37.677Z,28.03
2018-10-12T07:46:41.965Z,27.37
2018-10-12T07:49:46.225Z,36.43
2018-10-12T07:52:50.549Z,28.67
2018-10-12T07:55:54.815Z,27.13
2018-10-12T07:58:59.118Z,26.27
2018-10-12T08:02:03.393Z,30.10
2018-10-12T08:05:07.758Z,22.80
2018-10-12T08:08:12.044Z,25.33
2018-10-12T08:11:16.384Z,28.60
2018-10-12T08:14:20.844Z,30.90
2018-10-12T08:17:24.906Z,31.83
2018-10-12T08:20:29.257Z,24.37
2018-10-12T08:23:33.506Z,24.87
2018-10-12T08:26:37.856Z,23.27
2018-10-12T08:29:42.141Z,25.03
2018-10-12T08:32:46.427Z,26.50
2018-10-12T08:35:50.750Z,27.87
2018-10-12T08:38:55.044Z,25.70
2018-10-12T08:41:59.453Z,25.10
2018-10-12T08:45:03.612Z,24.73
2018-10-12T08:48:08.028Z,22.73
2018-10-12T08:51:12.296Z,27.20
2018-10-12T08:54:16.580Z,28.87
2018-10-12T08:57:20.849Z,26.13
2018-10-12T09:00:25.678Z,26.83
2018-10-12T09:03:29.975Z,34.73
2018-10-12T09:06:34.253Z,23.30
2018-10-12T09:09:38.579Z,24.43
2018-10-12T09:12:42.825Z,29.40
2018-10-12T09:15:47.108Z,25.83
2018-10-12T09:18:51.380Z,31.90
2018-10-12T09:21:55.737Z,24.77
2018-10-12T09:25:00.027Z,30.13
2018-10-12T09:28:04.321Z,35.20
2018-10-12T09:31:08.596Z,26.50
2018-10-12T09:34:12.917Z,23.93
2018-10-12T09:37:17.202Z,24.97
2018-10-12T09:40:21.471Z,23.10
2018-10-12T09:43:25.822Z,21.37
2018-10-12T09:46:30.094Z,21.73
2018-10-12T09:49:34.389Z,23.37
2018-10-12T09:52:38.681Z,22.07
2018-10-12T09:55:43.024Z,24.23
2018-10-12T09:58:47.272Z,21.67
2018-10-12T10:01:56.851Z,20.00
2018-10-12T10:05:06.505Z,22.67
2018-10-12T10:08:10.891Z,26.03
2018-10-12T10:11:15.136Z,23.77
2018-10-12T10:14:19.468Z,21.57
2018-10-12T10:17:23.800Z,22.63
2018-10-12T10:20:28.076Z,17.70
2018-10-12T10:23:32.373Z,16.77
2018-10-12T10:26:36.665Z,21.03
2018-10-12T10:29:40.995Z,21.67
2018-10-12T10:32:45.268Z,21.83
2018-10-12T10:35:49.546Z,15.77
2018-10-12T10:38:53.880Z,19.27
2018-10-12T10:41:58.171Z,19.37
2018-10-12T10:45:02.443Z,19.63
2018-10-12T10:48:06.786Z,16.97
2018-10-12T10:51:11.056Z,18.50
2018-10-12T10:54:15.410Z,16.03
2018-10-12T10:57:19.713Z,14.10
2018-10-12T11:00:24.261Z,16.80
2018-10-12T11:03:28.534Z,17.03
2018-10-12T11:06:32.826Z,17.30
2018-10-12T11:09:37.080Z,18.23
2018-10-12T11:12:41.804Z,23.63
2018-10-12T11:15:46.127Z,15.87
2018-10-12T11:18:50.408Z,16.97
2018-10-12T11:21:54.747Z,21.57
2018-10-12T11:24:59.125Z,15.10
2018-10-12T11:28:03.429Z,15.80
2018-10-12T11:31:08.511Z,17.33
2018-10-12T11:34:12.780Z,14.97
2018-10-12T11:37:17.103Z,13.57
2018-10-12T11:40:21.388Z,17.17
2018-10-12T11:43:35.681Z,18.13
2018-10-12T11:46:40.025Z,12.77
2018-10-12T11:49:44.361Z,15.67
2018-10-12T11:52:48.681Z,17.53
2018-10-12T11:55:53.002Z,13.03
2018-10-12T11:58:57.316Z,16.73
2018-10-12T12:02:01.632Z,18.43
2018-10-12T12:05:06.092Z,10.80
2018-10-12T12:08:10.993Z,9.43
2018-10-12T12:11:15.284Z,8.70
2018-10-12T12:14:19.604Z,11.47
2018-10-12T12:17:23.916Z,10.40
2018-10-12T12:20:28.435Z,7.90
2018-10-12T12:23:32.736Z,9.90
2018-10-12T12:26:37.019Z,9.40
2018-10-12T12:29:41.352Z,8.77
2018-10-12T12:32:45.695Z,8.37
2018-10-12T12:35:50.395Z,10.57
2018-10-12T12:38:54.280Z,7.03
2018-10-12T12:41:58.564Z,9.97
2018-10-12T12:45:02.851Z,8.70
2018-10-12T12:48:07.193Z,13.10
2018-10-12T12:51:12.279Z,12.63
2018-10-12T12:54:16.541Z,14.20
2018-10-12T12:57:20.817Z,6.80
2018-10-12T13:00:25.103Z,10.50
2018-10-12T13:03:29.371Z,7.17
2018-10-12T13:06:33.762Z,11.77
2018-10-12T13:09:37.980Z,7.03
2018-10-12T13:12:42.263Z,6.97
2018-10-12T13:15:46.705Z,4.60
2018-10-12T13:18:50.994Z,4.87
2018-10-12T13:21:55.238Z,4.93
2018-10-12T13:24:59.565Z,5.00
2018-10-12T13:28:03.803Z,7.47
2018-10-12T13:31:08.125Z,5.23
2018-10-12T13:34:12.438Z,7.43
2018-10-12T13:37:16.726Z,5.60
2018-10-12T13:40:21.053Z,5.10
2018-10-12T13:43:25.365Z,5.37
2018-10-12T13:46:29.684Z,5.63
2018-10-12T13:49:33.950Z,5.97
2018-10-12T13:52:38.270Z,7.07
2018-10-12T13:55:42.537Z,6.63
2018-10-12T13:58:46.849Z,6.80
2018-10-12T14:01:51.079Z,6.80
2018-10-12T14:04:55.395Z,8.83
2018-10-12T14:07:59.681Z,8.50
2018-10-12T14:11:04.001Z,10.60
2018-10-12T14:14:08.223Z,9.87
2018-10-12T14:17:12.481Z,9.40
2018-10-12T14:20:16.753Z,10.53
2018-10-12T14:23:20.998Z,7.93
2018-10-12T14:26:25.302Z,13.10
2018-10-12T14:29:29.556Z,7.27
2018-10-12T14:32:33.867Z,12.97
2018-10-12T14:35:38.132Z,14.37
2018-10-12T14:38:42.452Z,15.50
2018-10-12T14:41:46.697Z,12.33
2018-10-12T14:44:51.068Z,11.70
2018-10-12T14:47:55.355Z,12.40
2018-10-12T14:50:59.620Z,8.13
2018-10-12T14:54:03.922Z,10.40
2018-10-12T14:57:13.736Z,7.83
2018-10-12T15:00:18.051Z,9.57
2018-10-12T15:03:22.344Z,8.93
2018-10-12T15:06:26.640Z,11.97
2018-10-12T15:09:30.908Z,9.00
2018-10-12T15:12:35.209Z,10.30
2018-10-12T15:15:39.465Z,9.10
2018-10-12T15:18:43.804Z,11.03
2018-10-12T15:21:48.136Z,14.30
2018-10-12T15:24:52.446Z,13.67
2018-10-12T15:27:56.744Z,12.60
2018-10-12T15:31:01.015Z,11.50
2018-10-12T15:34:05.251Z,9.03
2018-10-12T15:37:09.580Z,13.77
2018-10-12T15:40:13.849Z,11.73
2018-10-12T15:43:18.198Z,13.03
2018-10-12T15:46:22.405Z,12.53
2018-10-12T15:49:26.732Z,12.33
2018-10-12T15:52:31.113Z,15.60
2018-10-12T15:55:35.374Z,14.33
2018-10-12T15:58:39.640Z,12.13
2018-10-12T16:01:43.913Z,10.53
2018-10-12T16:04:48.234Z,21.27
2018-10-12T16:07:52.522Z,12.47
2018-10-12T16:10:56.838Z,16.20
2018-10-12T16:14:01.115Z,9.23
2018-10-12T16:17:05.377Z,10.27
2018-10-12T16:20:09.624Z,8.53
2018-10-12T16:23:13.890Z,13.07
2018-10-12T16:26:22.868Z,10.53
2018-10-12T16:29:27.160Z,9.37
2018-10-12T16:32:31.490Z,9.80
2018-10-12T16:35:35.735Z,10.57
2018-10-12T16:38:40.083Z,12.67
2018-10-12T16:41:44.377Z,9.23
2018-10-12T16:44:48.632Z,15.43
2018-10-12T16:47:52.929Z,18.13
2018-10-12T16:50:57.204Z,17.17
2018-10-12T16:54:01.460Z,60.07
2018-10-12T16:57:05.736Z,10.93
2018-10-12T17:00:10.045Z,9.43
2018-10-12T17:03:14.334Z,17.20
2018-10-12T17:06:18.654Z,11.63
2018-10-12T17:09:22.895Z,8.93
2018-10-12T17:12:27.180Z,11.10
2018-10-12T17:15:31.509Z,10.53
2018-10-12T17:18:35.778Z,7.77
2018-10-12T17:21:40.025Z,8.73
2018-10-12T17:24:44.305Z,11.67
2018-10-12T17:27:48.676Z,11.87
2018-10-12T17:30:52.961Z,9.30
2018-10-12T17:33:57.230Z,9.40
2018-10-12T17:37:01.531Z,8.67
2018-10-12T17:40:06.054Z,9.70
2018-10-12T17:43:10.584Z,11.13
2018-10-12T17:46:15.035Z,9.90
2018-10-12T17:49:19.307Z,9.70
2018-10-12T17:52:23.586Z,12.73
2018-10-12T17:55:27.827Z,10.30
2018-10-12T17:58:32.724Z,12.33
2018-10-12T18:01:36.969Z,9.07
2018-10-12T18:04:41.216Z,10.77
2018-10-12T18:07:45.463Z,10.17
2018-10-12T18:10:49.777Z,10.33
2018-10-12T18:13:54.008Z,10.77
2018-10-12T18:16:58.276Z,11.17
2018-10-12T18:20:02.550Z,9.40
2018-10-12T18:23:06.974Z,9.30
2018-10-12T18:26:11.264Z,10.13
2018-10-12T18:29:15.913Z,10.53
2018-10-12T18:32:20.192Z,11.23
2018-10-12T18:35:24.498Z,10.63
2018-10-12T18:38:28.802Z,12.27
2018-10-12T18:41:33.103Z,10.97
2018-10-12T18:44:37.369Z,10.13
2018-10-12T18:47:41.711Z,10.40
2018-10-12T18:50:45.929Z,12.07
2018-10-12T18:53:50.234Z,11.27
2018-10-12T18:56:54.511Z,11.17
2018-10-12T18:59:58.855Z,12.17
2018-10-12T19:03:03.152Z,13.23
2018-10-12T19:06:07.445Z,11.23
2018-10-12T19:09:11.712Z,12.83
2018-10-12T19:12:16.037Z,12.07
2018-10-12T19:15:20.324Z,13.87
2018-10-12T19:18:24.616Z,10.30
2018-10-12T19:21:28.928Z,11.33
2018-10-12T19:24:33.206Z,11.83
2018-10-12T19:27:37.493Z,8.97
2018-10-12T19:30:41.811Z,11.47
2018-10-12T19:33:46.090Z,13.77
2018-10-12T19:36:50.390Z,10.37
2018-10-12T19:39:54.683Z,11.20
2018-10-12T19:42:59.007Z,10.50
2018-10-12T19:46:03.268Z,9.37
2018-10-12T19:49:07.561Z,11.57
2018-10-12T19:52:11.807Z,11.60
2018-10-12T19:55:16.133Z,13.10
2018-10-12T19:58:20.445Z,34.87
2018-10-12T20:01:24.758Z,67.13
2018-10-12T20:04:29.053Z,16.50
2018-10-12T20:07:33.345Z,13.67
2018-10-12T20:10:37.672Z,13.17
2018-10-12T20:13:41.926Z,13.47
2018-10-12T20:16:46.248Z,15.37
2018-10-12T20:19:50.512Z,10.30
2018-10-12T20:22:54.829Z,11.67
2018-10-12T20:25:59.091Z,10.13
2018-10-12T20:29:03.341Z,13.70
2018-10-12T20:32:08.110Z,33.77
2018-10-12T20:35:12.372Z,42.97
2018-10-12T20:38:17.181Z,48.63
2018-10-12T20:41:21.832Z,30.87
2018-10-12T20:44:26.151Z,19.00
2018-10-12T20:47:31.508Z,13.17
2018-10-12T20:50:36.435Z,11.93
2018-10-12T20:53:41.197Z,10.27
2018-10-12T20:56:45.474Z,10.00
2018-10-12T20:59:50.339Z,9.73
2018-10-12T21:02:54.923Z,9.13
2018-10-12T21:05:59.788Z,8.70
2018-10-12T21:09:06.229Z,8.93
2018-10-12T21:12:10.905Z,9.97
2018-10-12T21:15:15.233Z,12.63
2018-10-12T21:18:19.799Z,9.77
2018-10-12T21:21:24.332Z,11.27
2018-10-12T21:24:28.945Z,9.00
2018-10-12T21:27:33.580Z,12.80
2018-10-12T21:30:38.459Z,10.37
2018-10-12T21:33:43.569Z,10.00
2018-10-12T21:36:48.268Z,10.87
2018-10-12T21:39:52.557Z,9.27
2018-10-12T21:42:56.875Z,8.70
2018-10-12T21:46:01.142Z,14.33
2018-10-12T21:49:05.426Z,8.70
2018-10-12T21:52:10.181Z,9.97
2018-10-12T21:55:14.466Z,12.23
2018-10-12T21:58:18.722Z,11.67
2018-10-12T22:01:23.025Z,15.03
2018-10-12T22:04:27.262Z,13.13
2018-10-12T22:07:31.551Z,10.70
2018-10-12T22:10:35.826Z,9.97
2018-10-12T22:13:40.112Z,10.80
2018-10-12T22:16:44.389Z,10.53
2018-10-12T22:19:48.913Z,11.03
2018-10-12T22:22:53.284Z,12.30
2018-10-12T22:25:57.638Z,11.13
2018-10-12T22:29:01.859Z,14.50
2018-10-12T22:32:06.197Z,10.60
2018-10-12T22:35:10.466Z,12.00
2018-10-12T22:38:14.741Z,13.20
2018-10-12T22:41:19.015Z,15.20
2018-10-12T22:44:23.289Z,11.93
2018-10-12T22:47:27.585Z,11.17
2018-10-12T22:50:31.889Z,12.90
2018-10-12T22:53:36.142Z,12.20
2018-10-12T22:56:40.438Z,10.07
2018-10-12T22:59:44.718Z,13.10
2018-10-12T23:02:49.020Z,13.20
2018-10-12T23:05:53.272Z,13.23
2018-10-12T23:08:57.581Z,11.60
2018-10-12T23:12:01.873Z,12.97
2018-10-12T23:15:06.157Z,11.87
2018-10-12T23:18:10.429Z,11.70
2018-10-12T23:21:14.698Z,13.37
2018-10-12T23:24:18.992Z,14.00
2018-10-12T23:27:23.261Z,12.40
2018-10-12T23:30:27.575Z,15.43
2018-10-12T23:33:49.110Z,13.97
2018-10-12T23:36:53.391Z,15.03
2018-10-12T23:39:57.672Z,13.47
2018-10-12T23:43:01.967Z,17.80
2018-10-12T23:46:06.226Z,16.07
2018-10-12T23:49:10.476Z,16.60
2018-10-12T23:52:14.714Z,11.93
2018-10-12T23:55:18.987Z,15.30
2018-10-12T23:58:23.279Z,13.43
